Mari Lampton — WDE3648 — position and weather

sailwx.info

Track history (hours):
 
Tides and Currents Weather Stations Pressure Air Temp Water Temp Dewpoint Dewpoint Depression Visibility Wind Speed Wind Dir Waves Ship Positions

Mari Lampton

Owner: MAgnolia Marine Transport Company, Vicksburg, MS. More information available from US FCC via Universal Licensing System and Coast Guard Vessel Documentation Center.

Last reported at 2016-May-29 12:33 UTC. Time now 2016-May-29 13:26 UTC.
Position N 29°35' W 090°38'.

Length 34 m.

Type: Towing. MMSI: 367342210.

Date/timePositionNaut miles runAvg speedWind from/ knotsBaromVisibWave heightAir tempDewpointWater temp
2016-May-29 12:33N 29°35' W 090°38'2 1.7
2016-May-29 11:34N 29°36' W 090°39'3 2.6
2016-May-29 10:33N 29°37' W 090°42'3 2.7
2016-May-29 09:33N 29°34' W 090°43'1 0.6
2016-May-29 08:33N 29°34' W 090°44'3 2.5
2016-May-29 07:33N 29°32' W 090°46'  
2016-May-26 17:13N 29°56' W 092°57'3 4.5
2016-May-26 16:33N 29°56' W 093°00'5 5.5
2016-May-26 15:33N 29°56' W 093°07'4 4.1
2016-May-26 14:33N 29°58' W 093°11'5 4.6
2016-May-26 13:33N 30°02' W 093°14'4 4.3
2016-May-26 12:33N 30°05' W 093°17'1 1.5
2016-May-26 11:33N 30°06' W 093°18'0 0.1
2016-May-26 10:33N 30°06' W 093°18'3 2.6
2016-May-26 09:33N 30°04' W 093°21'5 5.1
2016-May-26 08:33N 30°04' W 093°26'3 2.5
2016-May-26 07:33N 30°04' W 093°29'0 0.0
2016-May-26 06:33N 30°04' W 093°29'0 0.0
2016-May-26 05:33N 30°04' W 093°29'0 0.0
2016-May-26 04:33N 30°04' W 093°29'0 0.0
2016-May-26 03:33N 30°04' W 093°29'0 0.0
2016-May-26 02:33N 30°04' W 093°29'0 0.0
2016-May-26 01:33N 30°04' W 093°29'0 0.0
2016-May-26 00:33N 30°04' W 093°29'0 0.0
2016-May-25 23:33N 30°04' W 093°29'0 0.0
2016-May-25 22:33N 30°04' W 093°29'0 0.0
2016-May-25 21:33N 30°04' W 093°29'0 0.1
2016-May-25 20:33N 30°04' W 093°29'0 0.0
2016-May-25 19:33N 30°04' W 093°29'0 0.0
2016-May-25 18:33N 30°04' W 093°29'0 0.0
2016-May-25 17:33N 30°04' W 093°29'0 0.0
2016-May-25 16:33N 30°04' W 093°29'0 0.0
2016-May-25 15:33N 30°04' W 093°29'0 0.0
2016-May-25 14:33N 30°04' W 093°29'0 0.1
2016-May-25 13:33N 30°04' W 093°29'0 0.1
2016-May-25 12:33N 30°04' W 093°29'0 0.0
2016-May-25 11:33N 30°04' W 093°29'0 0.0
2016-May-25 10:33N 30°04' W 093°29'0 0.1
2016-May-25 09:33N 30°04' W 093°29'0 0.1
2016-May-25 08:33N 30°04' W 093°29'2 2.0
2016-May-25 07:33N 30°04' W 093°31'5 5.3
2016-May-25 06:33N 30°04' W 093°37'5 4.7
2016-May-25 05:23N 30°03' W 093°44'0 0.0
2016-May-25 02:23N 30°03' W 093°44'13 0.3
2016-May-23 07:21N 30°01' W 093°59'0 0.0
2016-May-23 06:13N 30°01' W 093°59'7 0.2
2016-May-21 13:24N 29°58' W 093°52'0 0.0
2016-May-21 12:33N 29°58' W 093°52'1 1.2
2016-May-21 11:30N 29°57' W 093°52'1 0.0
2016-May-20 01:16N 29°57' W 093°52'  
Track history (hours):
 
Tides and Currents Weather Stations Pressure Air Temp Water Temp Dewpoint Dewpoint Depression Visibility Wind Speed Wind Dir Waves Ship Positions

Mari Lampton

Owner: MAgnolia Marine Transport Company, Vicksburg, MS. More information available from US FCC via Universal Licensing System and Coast Guard Vessel Documentation Center.

Last reported at 2016-May-29 12:33 UTC. Time now 2016-May-29 13:26 UTC.
Position N 29°35' W 090°38'.

Length 34 m.

Type: Towing. MMSI: 367342210.

Date/timePositionNaut miles runAvg speedWind from/ knotsBaromVisibWave heightAir tempDewpointWater temp
2016-May-29 12:33N 29°35' W 090°38'2 1.7
2016-May-29 11:34N 29°36' W 090°39'3 2.6
2016-May-29 10:33N 29°37' W 090°42'3 2.7
2016-May-29 09:33N 29°34' W 090°43'1 0.6
2016-May-29 08:33N 29°34' W 090°44'3 2.5
2016-May-29 07:33N 29°32' W 090°46'  
2016-May-26 17:13N 29°56' W 092°57'3 4.5
2016-May-26 16:33N 29°56' W 093°00'5 5.5
2016-May-26 15:33N 29°56' W 093°07'4 4.1
2016-May-26 14:33N 29°58' W 093°11'5 4.6
2016-May-26 13:33N 30°02' W 093°14'4 4.3
2016-May-26 12:33N 30°05' W 093°17'1 1.5
2016-May-26 11:33N 30°06' W 093°18'0 0.1
2016-May-26 10:33N 30°06' W 093°18'3 2.6
2016-May-26 09:33N 30°04' W 093°21'5 5.1
2016-May-26 08:33N 30°04' W 093°26'3 2.5
2016-May-26 07:33N 30°04' W 093°29'0 0.0
2016-May-26 06:33N 30°04' W 093°29'0 0.0
2016-May-26 05:33N 30°04' W 093°29'0 0.0
2016-May-26 04:33N 30°04' W 093°29'0 0.0
2016-May-26 03:33N 30°04' W 093°29'0 0.0
2016-May-26 02:33N 30°04' W 093°29'0 0.0
2016-May-26 01:33N 30°04' W 093°29'0 0.0
2016-May-26 00:33N 30°04' W 093°29'0 0.0
2016-May-25 23:33N 30°04' W 093°29'0 0.0
2016-May-25 22:33N 30°04' W 093°29'0 0.0
2016-May-25 21:33N 30°04' W 093°29'0 0.1
2016-May-25 20:33N 30°04' W 093°29'0 0.0
2016-May-25 19:33N 30°04' W 093°29'0 0.0
2016-May-25 18:33N 30°04' W 093°29'0 0.0
2016-May-25 17:33N 30°04' W 093°29'0 0.0
2016-May-25 16:33N 30°04' W 093°29'0 0.0
2016-May-25 15:33N 30°04' W 093°29'0 0.0
2016-May-25 14:33N 30°04' W 093°29'0 0.1
2016-May-25 13:33N 30°04' W 093°29'0 0.1
2016-May-25 12:33N 30°04' W 093°29'0 0.0
2016-May-25 11:33N 30°04' W 093°29'0 0.0
2016-May-25 10:33N 30°04' W 093°29'0 0.1
2016-May-25 09:33N 30°04' W 093°29'0 0.1
2016-May-25 08:33N 30°04' W 093°29'2 2.0
2016-May-25 07:33N 30°04' W 093°31'5 5.3
2016-May-25 06:33N 30°04' W 093°37'5 4.7
2016-May-25 05:23N 30°03' W 093°44'0 0.0
2016-May-25 02:23N 30°03' W 093°44'13 0.3
2016-May-23 07:21N 30°01' W 093°59'0 0.0
2016-May-23 06:13N 30°01' W 093°59'7 0.2
2016-May-21 13:24N 29°58' W 093°52'0 0.0
2016-May-21 12:33N 29°58' W 093°52'1 1.2
2016-May-21 11:30N 29°57' W 093°52'1 0.0
2016-May-20 01:16N 29°57' W 093°52'  

Dump ship's entire track history